createdAt,value
2018-12-03T00:01:55.737Z,4.37
2018-12-03T00:04:24.752Z,3.73
2018-12-03T00:06:53.236Z,4.23
2018-12-03T00:09:22.465Z,3.77
2018-12-03T00:11:50.641Z,5.20
2018-12-03T00:14:19.015Z,7.10
2018-12-03T00:16:47.261Z,4.27
2018-12-03T00:19:15.434Z,5.47
2018-12-03T00:21:43.732Z,4.07
2018-12-03T00:24:11.947Z,4.57
2018-12-03T00:26:40.226Z,4.13
2018-12-03T00:29:08.437Z,6.33
2018-12-03T00:31:36.677Z,4.50
2018-12-03T00:34:05.271Z,3.60
2018-12-03T00:36:33.523Z,3.37
2018-12-03T00:39:01.713Z,2.93
2018-12-03T00:41:30.020Z,3.20
2018-12-03T00:43:59.029Z,4.67
2018-12-03T00:46:27.618Z,3.10
2018-12-03T00:48:55.921Z,4.63
2018-12-03T00:51:24.117Z,3.27
2018-12-03T00:53:52.906Z,2.63
2018-12-03T00:56:21.195Z,4.40
2018-12-03T00:58:49.608Z,3.30
2018-12-03T01:01:17.879Z,2.50
2018-12-03T01:03:46.219Z,2.30
2018-12-03T01:06:14.473Z,2.47
2018-12-03T01:08:42.825Z,2.03
2018-12-03T01:11:12.214Z,2.20
2018-12-03T01:13:40.680Z,2.40
2018-12-03T01:16:08.874Z,2.63
2018-12-03T01:18:37.313Z,3.77
2018-12-03T01:21:05.917Z,3.03
2018-12-03T01:23:34.115Z,2.30
2018-12-03T01:26:02.376Z,1.50
2018-12-03T01:28:30.732Z,3.63
2018-12-03T01:30:59.064Z,2.73
2018-12-03T01:33:27.390Z,2.90
2018-12-03T01:35:55.690Z,2.60
2018-12-03T01:38:23.944Z,2.73
2018-12-03T01:40:52.469Z,2.33
2018-12-03T01:43:21.442Z,2.47
2018-12-03T01:45:49.796Z,3.13
2018-12-03T01:48:18.512Z,2.97
2018-12-03T01:50:46.733Z,2.40
2018-12-03T01:53:15.186Z,2.20
2018-12-03T01:55:43.698Z,4.50
2018-12-03T01:58:11.917Z,2.73
2018-12-03T02:00:40.275Z,1.50
2018-12-03T02:03:08.468Z,2.60
2018-12-03T02:05:36.664Z,1.77
2018-12-03T02:08:04.867Z,2.00
2018-12-03T02:10:33.052Z,2.30
2018-12-03T02:13:01.253Z,1.90
2018-12-03T02:15:29.434Z,2.17
2018-12-03T02:17:57.636Z,1.17
2018-12-03T02:20:25.829Z,1.60
2018-12-03T02:22:54.011Z,2.23
2018-12-03T02:25:22.206Z,1.40
2018-12-03T02:27:50.395Z,2.13
2018-12-03T02:30:18.715Z,1.23
2018-12-03T02:32:46.888Z,1.60
2018-12-03T02:35:15.206Z,2.00
2018-12-03T02:37:43.616Z,1.50
2018-12-03T02:40:14.740Z,1.20
2018-12-03T02:42:42.929Z,1.27
2018-12-03T02:45:12.040Z,1.13
2018-12-03T02:47:40.265Z,1.60
2018-12-03T02:50:13.500Z,3.40
2018-12-03T02:52:41.684Z,2.37
2018-12-03T02:55:11.248Z,1.90
2018-12-03T02:57:39.445Z,1.23
2018-12-03T03:00:15.813Z,1.37
2018-12-03T03:02:44.071Z,1.53
2018-12-03T03:05:13.423Z,1.67
2018-12-03T03:07:41.690Z,1.67
2018-12-03T03:10:12.005Z,1.90
2018-12-03T03:12:40.336Z,2.10
2018-12-03T03:15:10.793Z,1.20
2018-12-03T03:17:39.120Z,2.93
2018-12-03T03:20:09.281Z,2.63
2018-12-03T03:22:37.709Z,0.87
2018-12-03T03:25:07.381Z,1.47
2018-12-03T03:27:35.593Z,0.90
2018-12-03T03:30:04.779Z,1.33
2018-12-03T03:32:34.934Z,1.07
2018-12-03T03:35:01.164Z,0.83
2018-12-03T03:37:29.599Z,3.27
2018-12-03T03:39:57.791Z,0.80
2018-12-03T03:42:25.973Z,1.33
2018-12-03T03:44:54.172Z,0.83
2018-12-03T03:47:22.353Z,0.70
2018-12-03T03:49:50.564Z,0.70
2018-12-03T03:52:18.749Z,0.60
2018-12-03T03:54:46.946Z,0.60
2018-12-03T03:57:15.133Z,0.40
2018-12-03T03:59:43.337Z,0.93
2018-12-03T04:02:11.538Z,1.27
2018-12-03T04:04:39.717Z,2.73
2018-12-03T04:07:07.901Z,0.90
2018-12-03T04:09:36.108Z,0.90
2018-12-03T04:12:04.415Z,1.23
2018-12-03T04:14:32.609Z,0.50
2018-12-03T04:17:00.790Z,0.40
2018-12-03T04:19:28.981Z,0.73
2018-12-03T04:21:57.170Z,1.27
2018-12-03T04:24:25.345Z,0.93
2018-12-03T04:26:53.549Z,1.80
2018-12-03T04:29:21.965Z,0.40
2018-12-03T04:31:50.728Z,0.73
2018-12-03T04:34:18.926Z,1.00
2018-12-03T04:36:47.116Z,0.87
2018-12-03T04:39:15.297Z,0.90
2018-12-03T04:41:43.491Z,0.60
2018-12-03T04:44:11.695Z,0.80
2018-12-03T04:46:39.921Z,2.57
2018-12-03T04:49:08.121Z,1.93
2018-12-03T04:51:36.321Z,0.40
2018-12-03T04:54:04.752Z,1.30
2018-12-03T04:56:32.940Z,0.83
2018-12-03T04:59:01.138Z,0.80
2018-12-03T05:01:29.323Z,0.70
2018-12-03T05:03:57.555Z,0.83
2018-12-03T05:06:26.039Z,0.83
2018-12-03T05:08:54.237Z,0.70
2018-12-03T05:11:22.425Z,1.53
2018-12-03T05:13:50.661Z,0.77
2018-12-03T05:16:18.848Z,1.57
2018-12-03T05:18:47.058Z,2.53
2018-12-03T05:21:15.237Z,0.97
2018-12-03T05:23:43.446Z,0.97
2018-12-03T05:26:11.649Z,0.80
2018-12-03T05:28:39.844Z,2.73
2018-12-03T05:31:08.041Z,1.13
2018-12-03T05:33:36.458Z,0.77
2018-12-03T05:36:04.956Z,2.67
2018-12-03T05:38:33.185Z,1.07
2018-12-03T05:41:01.621Z,1.70
2018-12-03T05:43:29.808Z,2.07
2018-12-03T05:45:57.996Z,1.77
2018-12-03T05:48:26.168Z,0.57
2018-12-03T05:50:54.393Z,0.70
2018-12-03T05:53:22.568Z,1.43
2018-12-03T05:55:50.765Z,1.10
2018-12-03T05:58:19.169Z,0.37
2018-12-03T06:00:47.529Z,0.83
2018-12-03T06:03:15.704Z,0.63
2018-12-03T06:05:44.355Z,0.33
2018-12-03T06:08:12.768Z,4.77
2018-12-03T06:10:40.949Z,0.93
2018-12-03T06:13:09.131Z,1.20
2018-12-03T06:15:37.325Z,0.47
2018-12-03T06:18:06.029Z,2.70
2018-12-03T06:20:34.228Z,0.60
2018-12-03T06:23:02.420Z,0.77
2018-12-03T06:25:30.617Z,3.03
2018-12-03T06:27:59.021Z,2.90
2018-12-03T06:30:27.793Z,7.37
2018-12-03T06:32:55.993Z,2.07
2018-12-03T06:35:24.176Z,2.87
2018-12-03T06:37:52.339Z,7.43
2018-12-03T06:40:25.242Z,1.63
2018-12-03T06:42:53.424Z,3.03
2018-12-03T06:45:22.890Z,1.83
2018-12-03T06:48:25.301Z,4.67
2018-12-03T06:50:53.493Z,3.87
2018-12-03T06:53:21.681Z,3.97
2018-12-03T06:55:49.883Z,3.30
2018-12-03T06:58:18.078Z,2.90
2018-12-03T07:00:47.533Z,4.60
2018-12-03T07:03:15.994Z,6.13
2018-12-03T07:05:45.726Z,2.37
2018-12-03T07:08:13.911Z,2.30
2018-12-03T07:10:42.100Z,3.13
2018-12-03T07:13:14.125Z,2.90
2018-12-03T07:15:43.514Z,2.57
2018-12-03T07:18:12.729Z,6.77
2018-12-03T07:20:41.132Z,2.97
2018-12-03T07:23:09.317Z,4.93
2018-12-03T07:25:37.524Z,5.83
2018-12-03T07:28:06.240Z,6.97
2018-12-03T07:30:34.437Z,3.30
2018-12-03T07:33:02.633Z,3.43
2018-12-03T07:35:30.817Z,4.17
2018-12-03T07:37:59.469Z,3.20
2018-12-03T07:40:27.644Z,3.10
2018-12-03T07:42:56.058Z,3.43
2018-12-03T07:45:25.465Z,4.23
2018-12-03T07:47:53.669Z,3.97
2018-12-03T07:50:22.835Z,6.80
2018-12-03T07:52:51.064Z,2.80
2018-12-03T07:55:22.515Z,2.17
2018-12-03T07:57:57.583Z,1.83
2018-12-03T08:00:29.185Z,7.10
2018-12-03T08:02:57.367Z,2.23
2018-12-03T08:05:25.557Z,4.03
2018-12-03T08:07:53.757Z,3.87
2018-12-03T08:10:22.618Z,3.57
2018-12-03T08:12:50.812Z,1.70
2018-12-03T08:15:19.684Z,1.57
2018-12-03T08:17:50.753Z,1.77
2018-12-03T08:20:28.025Z,3.07
2018-12-03T08:22:58.782Z,1.37
2018-12-03T08:25:27.200Z,2.03
2018-12-03T08:27:55.386Z,1.37
2018-12-03T08:30:23.637Z,1.57
2018-12-03T08:32:51.821Z,0.90
2018-12-03T08:35:20.027Z,3.20
2018-12-03T08:37:48.213Z,1.27
2018-12-03T08:40:20.357Z,2.30
2018-12-03T08:42:51.128Z,0.70
2018-12-03T08:45:19.795Z,1.00
2018-12-03T08:47:48.316Z,1.00
2018-12-03T08:50:19.017Z,0.67
2018-12-03T08:52:47.437Z,2.30
2018-12-03T08:55:15.864Z,1.17
2018-12-03T08:57:44.060Z,1.13
2018-12-03T09:00:15.691Z,3.33
2018-12-03T09:02:51.523Z,0.60
2018-12-03T09:05:19.708Z,0.60
2018-12-03T09:07:47.898Z,0.80
2018-12-03T09:10:16.360Z,0.50
2018-12-03T09:12:44.557Z,0.57
2018-12-03T09:15:12.744Z,0.87
2018-12-03T09:17:40.936Z,0.63
2018-12-03T09:20:09.500Z,0.57
2018-12-03T09:22:37.697Z,2.77
2018-12-03T09:25:09.519Z,1.63
2018-12-03T09:27:38.580Z,0.70
2018-12-03T09:30:07.142Z,2.70
2018-12-03T09:32:35.336Z,1.70
2018-12-03T09:35:04.249Z,1.23
2018-12-03T09:37:32.471Z,1.07
2018-12-03T09:40:00.677Z,2.00
2018-12-03T09:42:31.841Z,2.63
2018-12-03T09:45:02.058Z,2.37
2018-12-03T09:47:30.799Z,3.10
2018-12-03T09:49:58.453Z,1.50
2018-12-03T09:52:26.690Z,1.10
2018-12-03T09:54:55.129Z,1.60
2018-12-03T09:57:23.363Z,0.60
2018-12-03T09:59:51.582Z,0.80
2018-12-03T10:02:25.433Z,0.87
2018-12-03T10:04:56.924Z,9.70
2018-12-03T10:07:25.146Z,4.13
2018-12-03T10:09:53.877Z,3.53
2018-12-03T10:12:22.342Z,1.07
2018-12-03T10:14:50.595Z,12.20
2018-12-03T10:17:19.059Z,15.20
2018-12-03T10:19:50.216Z,5.87
2018-12-03T10:22:18.686Z,7.87
2018-12-03T10:24:46.921Z,7.60
2018-12-03T10:27:15.374Z,6.40
2018-12-03T10:29:43.626Z,12.90
2018-12-03T10:32:16.493Z,9.80
2018-12-03T10:34:44.716Z,3.70
2018-12-03T10:37:13.177Z,5.63
2018-12-03T10:39:41.688Z,5.00
2018-12-03T10:42:13.712Z,4.47
2018-12-03T10:44:42.205Z,7.60
2018-12-03T10:47:10.812Z,3.47
2018-12-03T10:49:39.036Z,4.43
2018-12-03T10:52:08.325Z,3.70
2018-12-03T10:54:41.997Z,0.90
2018-12-03T10:57:11.349Z,0.70
2018-12-03T10:59:39.598Z,0.80
2018-12-03T11:02:13.422Z,2.27
2018-12-03T11:04:44.914Z,2.57
2018-12-03T11:07:15.297Z,1.83
2018-12-03T11:09:43.545Z,1.63
2018-12-03T11:12:11.864Z,0.80
2018-12-03T11:14:40.092Z,0.43
2018-12-03T11:17:08.533Z,2.40
2018-12-03T11:19:36.805Z,3.87
2018-12-03T11:22:05.844Z,1.20
2018-12-03T11:24:34.064Z,2.30
2018-12-03T11:27:02.648Z,0.97
2018-12-03T11:29:31.337Z,5.10
2018-12-03T11:31:59.598Z,1.23
2018-12-03T11:34:28.049Z,0.83
2018-12-03T11:36:59.357Z,4.00
2018-12-03T11:39:57.589Z,1.90
2018-12-03T11:42:29.863Z,0.70
2018-12-03T11:44:58.305Z,0.73
2018-12-03T11:47:26.769Z,1.87
2018-12-03T11:49:55.005Z,4.40
2018-12-03T11:52:23.733Z,0.43
2018-12-03T11:54:51.961Z,0.57
2018-12-03T11:57:20.446Z,2.03
2018-12-03T11:59:48.665Z,1.27
2018-12-03T12:02:16.893Z,2.47
2018-12-03T12:04:45.113Z,2.27
2018-12-03T12:07:13.336Z,3.17
2018-12-03T12:09:41.574Z,2.63
2018-12-03T12:12:09.812Z,0.60
2018-12-03T12:14:38.033Z,1.40
2018-12-03T12:17:06.381Z,1.70
2018-12-03T12:19:34.604Z,3.57
2018-12-03T12:22:03.060Z,0.50
2018-12-03T12:24:31.496Z,0.63
2018-12-03T12:26:59.725Z,3.40
2018-12-03T12:29:28.169Z,0.93
2018-12-03T12:32:11.984Z,0.93
2018-12-03T12:34:40.220Z,0.93
2018-12-03T12:37:08.909Z,2.37
2018-12-03T12:39:37.150Z,0.67
2018-12-03T12:42:06.627Z,1.40
2018-12-03T12:44:35.421Z,2.63
2018-12-03T12:47:03.877Z,3.93
2018-12-03T12:49:32.333Z,2.40
2018-12-03T12:52:00.787Z,4.93
2018-12-03T12:54:29.013Z,11.13
2018-12-03T12:56:57.265Z,5.67
2018-12-03T12:59:25.716Z,7.83
2018-12-03T13:01:53.945Z,7.97
2018-12-03T13:04:22.160Z,4.80
2018-12-03T13:06:50.400Z,4.77
2018-12-03T13:09:18.864Z,3.13
2018-12-03T13:11:47.180Z,4.27
2018-12-03T13:14:15.657Z,3.63
2018-12-03T13:16:43.908Z,2.20
2018-12-03T13:19:12.353Z,0.80
2018-12-03T13:21:40.780Z,2.53
2018-12-03T13:24:08.964Z,5.03
2018-12-03T13:26:40.906Z,2.30
2018-12-03T13:29:09.111Z,2.47
2018-12-03T13:31:37.293Z,1.90
2018-12-03T13:34:07.247Z,1.90
2018-12-03T13:36:35.648Z,1.07
2018-12-03T13:39:05.765Z,12.07
2018-12-03T13:41:33.969Z,6.63
2018-12-03T13:44:02.167Z,5.80
2018-12-03T13:46:30.345Z,1.87
2018-12-03T13:48:58.544Z,1.03
2018-12-03T13:51:26.733Z,2.07
2018-12-03T13:53:54.931Z,7.00
2018-12-03T13:56:23.117Z,6.10
2018-12-03T13:58:51.313Z,27.60
2018-12-03T14:01:19.909Z,7.77
2018-12-03T14:03:48.104Z,8.33
2018-12-03T14:07:24.168Z,10.67
2018-12-03T14:10:04.318Z,6.00
2018-12-03T14:12:39.125Z,7.17
2018-12-03T14:15:19.069Z,3.83
2018-12-03T14:17:51.157Z,8.43
2018-12-03T14:20:20.868Z,4.27
2018-12-03T14:22:53.677Z,2.10
2018-12-03T14:25:21.848Z,1.20
2018-12-03T14:27:50.042Z,0.63
2018-12-03T14:30:18.445Z,6.00
2018-12-03T14:32:46.809Z,5.83
2018-12-03T14:35:15.013Z,3.37
2018-12-03T14:37:43.245Z,2.43
2018-12-03T14:40:11.449Z,2.37
2018-12-03T14:42:39.656Z,2.17
2018-12-03T14:45:10.189Z,2.90
2018-12-03T14:47:38.393Z,0.93
2018-12-03T14:50:08.654Z,1.87
2018-12-03T14:52:36.913Z,0.63
2018-12-03T14:55:06.241Z,3.10
2018-12-03T14:57:34.453Z,3.00
2018-12-03T15:00:02.680Z,1.93
2018-12-03T15:02:30.853Z,7.13
2018-12-03T15:04:59.055Z,0.67
2018-12-03T15:07:27.236Z,1.77
2018-12-03T15:09:55.447Z,0.80
2018-12-03T15:12:23.654Z,2.53
2018-12-03T15:14:52.069Z,2.93
2018-12-03T15:17:20.482Z,2.43
2018-12-03T15:19:48.661Z,0.87
2018-12-03T15:22:16.841Z,2.10
2018-12-03T15:24:45.260Z,3.53
2018-12-03T15:27:13.441Z,2.53
2018-12-03T15:29:41.646Z,0.83
2018-12-03T15:32:09.825Z,3.10
2018-12-03T15:34:38.237Z,2.07
2018-12-03T15:37:06.422Z,2.50
2018-12-03T15:39:34.842Z,2.80
2018-12-03T15:42:03.036Z,3.17
2018-12-03T15:44:31.433Z,2.77
2018-12-03T15:46:59.621Z,5.07
2018-12-03T15:49:27.805Z,3.90
2018-12-03T15:51:55.992Z,3.03
2018-12-03T15:54:24.200Z,5.73
2018-12-03T15:56:52.390Z,4.87
2018-12-03T15:59:20.800Z,6.23
2018-12-03T16:01:48.981Z,2.87
2018-12-03T16:04:17.168Z,14.07
2018-12-03T16:06:45.588Z,7.83
2018-12-03T16:09:14.149Z,12.93
2018-12-03T16:11:42.564Z,13.33
2018-12-03T16:14:10.985Z,12.47
2018-12-03T16:16:39.183Z,9.53
2018-12-03T16:19:07.385Z,6.73
2018-12-03T16:21:39.400Z,24.10
2018-12-03T16:24:07.837Z,14.87
2018-12-03T16:26:36.033Z,13.67
2018-12-03T16:29:04.276Z,28.63
2018-12-03T16:31:32.492Z,8.10
2018-12-03T16:34:00.926Z,6.60
2018-12-03T16:36:29.130Z,3.53
2018-12-03T16:38:57.336Z,5.27
2018-12-03T16:41:25.728Z,4.87
2018-12-03T16:43:53.954Z,7.17
2018-12-03T16:46:22.150Z,4.33
2018-12-03T16:48:50.613Z,8.10
2018-12-03T16:51:18.802Z,2.87
2018-12-03T16:53:48.667Z,6.83
2018-12-03T16:56:17.575Z,10.67
2018-12-03T16:58:46.486Z,7.50
2018-12-03T17:01:15.447Z,5.47
2018-12-03T17:03:44.366Z,8.90
2018-12-03T17:06:13.396Z,9.40
2018-12-03T17:08:42.377Z,16.63
2018-12-03T17:11:10.625Z,14.67
2018-12-03T17:13:38.821Z,18.97
2018-12-03T17:16:08.377Z,14.17
2018-12-03T17:18:36.780Z,14.97
2018-12-03T17:21:19.644Z,21.23
2018-12-03T17:24:06.682Z,22.37
2018-12-03T17:26:34.881Z,15.90
2018-12-03T17:29:03.321Z,17.60
2018-12-03T17:31:31.817Z,18.57
2018-12-03T17:34:00.043Z,20.87
2018-12-03T17:36:28.253Z,19.37
2018-12-03T17:38:56.460Z,13.13
2018-12-03T17:41:24.882Z,13.67
2018-12-03T17:43:53.076Z,13.53
2018-12-03T17:46:21.272Z,11.13
2018-12-03T17:48:49.441Z,7.80
2018-12-03T17:51:17.650Z,6.33
2018-12-03T17:53:46.050Z,4.20
2018-12-03T17:56:14.234Z,3.10
2018-12-03T17:58:42.448Z,3.67
2018-12-03T18:01:10.650Z,5.10
2018-12-03T18:03:39.089Z,2.17
2018-12-03T18:06:07.269Z,2.47
2018-12-03T18:08:35.456Z,2.33
2018-12-03T18:11:07.181Z,1.57
2018-12-03T18:13:35.356Z,4.07
2018-12-03T18:16:03.684Z,1.80
2018-12-03T18:18:32.129Z,1.30
2018-12-03T18:21:00.551Z,3.93
2018-12-03T18:23:28.743Z,3.33
2018-12-03T18:25:57.193Z,3.27
2018-12-03T18:28:25.604Z,1.70
2018-12-03T18:30:53.841Z,2.40
2018-12-03T18:33:22.044Z,3.67
2018-12-03T18:35:50.224Z,3.53
2018-12-03T18:38:18.946Z,6.93
2018-12-03T18:40:47.360Z,3.13
2018-12-03T18:43:15.560Z,3.30
2018-12-03T18:45:43.830Z,2.93
2018-12-03T18:48:13.293Z,4.60
2018-12-03T18:50:44.247Z,5.53
2018-12-03T18:53:15.639Z,8.27
2018-12-03T18:55:43.836Z,3.40
2018-12-03T18:58:14.578Z,4.90
2018-12-03T19:00:42.801Z,5.00
2018-12-03T19:03:10.984Z,4.27
2018-12-03T19:05:39.401Z,6.73
2018-12-03T19:08:07.885Z,4.40
2018-12-03T19:10:36.087Z,5.80
2018-12-03T19:13:04.566Z,5.60
2018-12-03T19:15:32.988Z,4.40
2018-12-03T19:18:01.184Z,6.20
2018-12-03T19:20:29.424Z,6.23
2018-12-03T19:22:57.606Z,5.67
2018-12-03T19:25:25.802Z,4.83
2018-12-03T19:27:53.992Z,5.43
2018-12-03T19:30:22.249Z,2.57
2018-12-03T19:32:50.462Z,3.63
2018-12-03T19:35:18.955Z,2.00
2018-12-03T19:37:47.373Z,4.47
2018-12-03T19:40:15.573Z,2.27
2018-12-03T19:42:43.757Z,2.43
2018-12-03T19:45:12.202Z,2.33
2018-12-03T19:47:40.609Z,2.17
2018-12-03T19:50:09.364Z,2.43
2018-12-03T19:52:38.762Z,1.47
2018-12-03T19:55:09.217Z,1.93
2018-12-03T19:57:38.077Z,2.27
2018-12-03T20:00:09.847Z,1.97
2018-12-03T20:02:38.034Z,2.33
2018-12-03T20:05:11.554Z,2.77
2018-12-03T20:07:39.745Z,7.57
2018-12-03T20:10:08.760Z,2.70
2018-12-03T20:12:37.176Z,3.13
2018-12-03T20:15:06.517Z,2.57
2018-12-03T20:17:37.614Z,2.97
2018-12-03T20:20:10.368Z,2.23
2018-12-03T20:22:45.122Z,2.40
2018-12-03T20:25:17.087Z,2.73
2018-12-03T20:27:51.988Z,4.70
2018-12-03T20:33:19.425Z,3.40
2018-12-03T20:36:03.445Z,4.90
2018-12-03T20:38:40.241Z,3.43
2018-12-03T20:41:21.342Z,2.63
2018-12-03T20:44:02.143Z,6.00
2018-12-03T20:46:43.937Z,2.67
2018-12-03T20:49:38.757Z,2.40
2018-12-03T20:52:16.353Z,1.90
2018-12-03T20:54:53.498Z,1.17
2018-12-03T20:57:25.240Z,6.30
2018-12-03T20:59:59.585Z,0.53
2018-12-03T21:02:31.369Z,0.50
2018-12-03T21:05:03.457Z,1.77
2018-12-03T21:07:47.942Z,0.70
2018-12-03T21:10:17.639Z,0.93
2018-12-03T21:12:53.675Z,1.30
2018-12-03T21:15:22.097Z,1.27
2018-12-03T21:18:02.321Z,1.70
2018-12-03T21:20:39.476Z,0.60
2018-12-03T21:23:26.302Z,0.53
2018-12-03T21:25:58.220Z,1.03
2018-12-03T21:28:29.528Z,2.37
2018-12-03T21:31:01.660Z,2.43
2018-12-03T21:33:31.289Z,1.13
2018-12-03T21:36:01.421Z,0.87
2018-12-03T21:38:41.522Z,0.80
2018-12-03T21:41:19.377Z,0.63
2018-12-03T21:44:07.400Z,1.53
2018-12-03T21:46:42.142Z,0.90
2018-12-03T21:49:17.953Z,2.03
2018-12-03T21:51:52.043Z,0.40
2018-12-03T21:54:33.048Z,0.70
2018-12-03T21:57:10.774Z,1.70
2018-12-03T21:59:47.772Z,0.27
2018-12-03T22:02:28.573Z,1.50
2018-12-03T22:05:08.830Z,0.33
2018-12-03T22:07:40.157Z,2.10
2018-12-03T22:10:14.648Z,0.90
2018-12-03T22:12:46.449Z,0.17
2018-12-03T22:15:16.613Z,0.70
2018-12-03T22:17:48.880Z,0.40
2018-12-03T22:20:20.208Z,1.03
2018-12-03T22:22:52.271Z,1.57
2018-12-03T22:25:28.099Z,1.70
2018-12-03T22:28:02.128Z,1.20
2018-12-03T22:30:33.904Z,6.13
2018-12-03T22:33:05.127Z,1.40
2018-12-03T22:35:42.917Z,1.47
2018-12-03T22:38:16.863Z,0.50
2018-12-03T22:40:50.933Z,0.70
2018-12-03T22:46:15.438Z,0.80
2018-12-03T22:48:48.105Z,0.40
2018-12-03T22:51:19.837Z,1.23
2018-12-03T22:53:51.252Z,0.67
2018-12-03T22:56:36.656Z,0.10
2018-12-03T23:02:03.464Z,0.77
2018-12-03T23:04:39.425Z,0.20
2018-12-03T23:07:17.752Z,0.30
2018-12-03T23:09:51.744Z,0.20
2018-12-03T23:12:26.117Z,1.00
2018-12-03T23:15:09.138Z,0.17
2018-12-03T23:17:40.777Z,1.83
2018-12-03T23:20:12.144Z,0.30
2018-12-03T23:22:44.501Z,0.43
2018-12-03T23:25:15.916Z,1.13
2018-12-03T23:30:48.760Z,1.87
2018-12-03T23:33:22.425Z,0.43
2018-12-03T23:35:54.109Z,0.47
2018-12-03T23:38:24.335Z,2.07
2018-12-03T23:40:55.857Z,1.40
2018-12-03T23:43:26.058Z,0.93
2018-12-03T23:45:58.537Z,0.23
2018-12-03T23:48:34.674Z,0.73
2018-12-03T23:54:14.570Z,0.73
2018-12-03T23:56:57.589Z,0.47
2018-12-03T23:59:29.713Z,0.40
